createdAt,value
2017-11-03T00:00:09.735Z,98420.25
2017-11-03T00:02:38.013Z,98414.38
2017-11-03T00:05:06.276Z,98416.69
2017-11-03T00:07:34.575Z,98412.07
2017-11-03T00:10:02.856Z,98412.02
2017-11-03T00:12:31.607Z,98406.24
2017-11-03T00:14:59.929Z,98413.63
2017-11-03T00:17:28.191Z,98420.98
2017-11-03T00:19:56.455Z,98419.27
2017-11-03T00:22:24.734Z,98413.70
2017-11-03T00:24:53.006Z,98414.02
2017-11-03T00:27:21.285Z,98423.45
2017-11-03T00:29:49.964Z,98421.55
2017-11-03T00:32:18.303Z,98424.97
2017-11-03T00:34:46.745Z,98425.34
2017-11-03T00:37:15.010Z,98423.45
2017-11-03T00:39:43.301Z,98426.01
2017-11-03T00:42:11.611Z,98424.46
2017-11-03T00:44:39.877Z,98423.34
2017-11-03T00:47:08.166Z,98418.14
2017-11-03T00:49:36.461Z,98423.16
2017-11-03T00:52:05.519Z,98430.41
2017-11-03T00:54:33.794Z,98433.52
2017-11-03T00:57:02.469Z,98430.23
2017-11-03T00:59:30.744Z,98427.50
2017-11-03T01:01:59.009Z,98421.81
2017-11-03T01:04:27.696Z,98431.54
2017-11-03T01:06:55.955Z,98427.44
2017-11-03T01:09:24.231Z,98428.98
2017-11-03T01:11:52.501Z,98426.67
2017-11-03T01:14:20.775Z,98428.50
2017-11-03T01:16:49.063Z,98432.84
2017-11-03T01:19:17.324Z,98434.89
2017-11-03T01:21:46.370Z,98428.91
2017-11-03T01:24:14.669Z,98425.20
2017-11-03T01:26:43.320Z,98430.58
2017-11-03T01:29:11.583Z,98434.41
2017-11-03T01:31:40.155Z,98434.66
2017-11-03T01:34:09.688Z,98430.27
2017-11-03T01:36:37.948Z,98434.91
2017-11-03T01:39:06.231Z,98437.65
2017-11-03T01:41:34.544Z,98436.44
2017-11-03T01:44:02.843Z,98434.09
2017-11-03T01:46:31.100Z,98435.36
2017-11-03T01:48:59.367Z,98434.88
2017-11-03T01:51:27.659Z,98435.88
2017-11-03T01:53:56.421Z,98438.41
2017-11-03T01:56:24.706Z,98442.29
2017-11-03T01:58:52.973Z,98442.14
2017-11-03T02:01:21.220Z,98438.34
2017-11-03T02:03:50.294Z,98439.45
2017-11-03T02:06:18.567Z,98429.53
2017-11-03T02:08:46.852Z,98438.98
2017-11-03T02:11:15.122Z,98435.73
2017-11-03T02:13:43.398Z,98433.91
2017-11-03T02:16:12.180Z,98432.92
2017-11-03T02:18:40.439Z,98442.45
2017-11-03T02:21:08.728Z,98439.41
2017-11-03T02:23:37.667Z,98431.32
2017-11-03T02:26:06.696Z,98436.66
2017-11-03T02:28:34.969Z,98429.08
2017-11-03T02:31:03.262Z,98428.88
2017-11-03T02:33:31.529Z,98434.59
2017-11-03T02:35:59.873Z,98434.80
2017-11-03T02:38:28.912Z,98432.30
2017-11-03T02:40:57.174Z,98425.60
2017-11-03T02:43:25.456Z,98427.11
2017-11-03T02:45:53.716Z,98435.93
2017-11-03T02:48:22.006Z,98433.98
2017-11-03T02:50:50.712Z,98425.44
2017-11-03T02:53:18.972Z,98425.84
2017-11-03T02:55:47.254Z,98425.30
2017-11-03T02:58:15.507Z,98426.05
2017-11-03T03:00:43.768Z,98425.74
2017-11-03T03:03:12.807Z,98425.81
2017-11-03T03:05:41.601Z,98427.25
2017-11-03T03:08:09.856Z,98427.34
2017-11-03T03:10:38.152Z,98424.95
2017-11-03T03:13:06.409Z,98424.38
2017-11-03T03:15:35.217Z,98416.03
2017-11-03T03:18:03.517Z,98415.55
2017-11-03T03:20:31.815Z,98424.81
2017-11-03T03:23:00.589Z,98430.39
2017-11-03T03:25:28.861Z,98431.55
2017-11-03T03:27:57.141Z,98428.54
2017-11-03T03:30:25.468Z,98430.17
2017-11-03T03:32:54.514Z,98434.12
2017-11-03T03:35:22.790Z,98436.41
2017-11-03T03:37:51.062Z,98440.77
2017-11-03T03:40:19.347Z,98444.16
2017-11-03T03:42:47.637Z,98445.56
2017-11-03T03:45:15.913Z,98440.61
2017-11-03T03:47:44.237Z,98443.92
2017-11-03T03:50:12.515Z,98440.50
2017-11-03T03:52:41.605Z,98441.62
2017-11-03T03:55:09.899Z,98439.27
2017-11-03T03:57:38.155Z,98437.80
2017-11-03T04:00:07.201Z,98439.47
2017-11-03T04:02:35.903Z,98436.69
2017-11-03T04:05:05.008Z,98439.47
2017-11-03T04:07:33.283Z,98439.13
2017-11-03T04:10:01.548Z,98440.81
2017-11-03T04:12:29.815Z,98437.86
2017-11-03T04:14:58.114Z,98437.97
2017-11-03T04:17:26.367Z,98441.85
2017-11-03T04:19:54.938Z,98440.45
2017-11-03T04:22:23.195Z,98443.38
2017-11-03T04:24:51.510Z,98439.29
2017-11-03T04:27:20.567Z,98430.96
2017-11-03T04:29:48.819Z,98436.97
2017-11-03T04:32:17.100Z,98443.18
2017-11-03T04:34:45.376Z,98437.14
2017-11-03T04:37:14.125Z,98439.48
2017-11-03T04:39:42.403Z,98440.02
2017-11-03T04:42:10.673Z,98435.42
2017-11-03T04:44:38.953Z,98431.87
2017-11-03T04:47:07.227Z,98432.71
2017-11-03T04:49:35.500Z,98432.71
2017-11-03T04:52:03.780Z,98433.95
2017-11-03T04:54:32.079Z,98431.07
2017-11-03T04:57:00.333Z,98434.48
2017-11-03T04:59:28.624Z,98435.38
2017-11-03T05:01:56.897Z,98427.28
2017-11-03T05:04:25.683Z,98435.54
2017-11-03T05:06:54.499Z,98427.44
2017-11-03T05:09:22.760Z,98428.42
2017-11-03T05:11:51.052Z,98427.14
2017-11-03T05:14:20.116Z,98427.84
2017-11-03T05:16:48.378Z,98425.68
2017-11-03T05:19:16.655Z,98426.20
2017-11-03T05:21:44.915Z,98430.09
2017-11-03T05:24:13.948Z,98433.00
2017-11-03T05:26:42.376Z,98433.64
2017-11-03T05:29:11.059Z,98430.87
2017-11-03T05:31:39.325Z,98439.91
2017-11-03T05:34:08.095Z,98441.77
2017-11-03T05:36:36.376Z,98438.19
2017-11-03T05:39:04.909Z,98440.13
2017-11-03T05:41:33.943Z,98437.02
2017-11-03T05:44:02.217Z,98442.14
2017-11-03T05:46:30.491Z,98442.02
2017-11-03T05:48:58.762Z,98447.50
2017-11-03T05:51:27.051Z,98442.84
2017-11-03T05:53:55.302Z,98446.19
2017-11-03T05:56:23.573Z,98447.97
2017-11-03T05:58:52.622Z,98448.03
2017-11-03T06:01:20.881Z,98443.55
2017-11-03T06:03:49.403Z,98445.04
2017-11-03T06:06:17.664Z,98443.85
2017-11-03T06:08:46.342Z,98448.08
2017-11-03T06:11:14.629Z,98457.35
2017-11-03T06:13:42.884Z,98454.52
2017-11-03T06:16:11.160Z,98453.56
2017-11-03T06:18:39.438Z,98447.63
2017-11-03T06:21:07.698Z,98463.72
2017-11-03T06:23:36.047Z,98461.81
2017-11-03T06:26:04.891Z,98460.45
2017-11-03T06:28:33.184Z,98458.75
2017-11-03T06:31:01.464Z,98461.36
2017-11-03T06:33:29.731Z,98467.52
2017-11-03T06:35:58.007Z,98468.87
2017-11-03T06:38:26.271Z,98472.00
2017-11-03T06:40:54.560Z,98472.38
2017-11-03T06:43:22.855Z,98473.66
2017-11-03T06:45:51.882Z,98472.12
2017-11-03T06:48:20.518Z,98476.20
2017-11-03T06:50:48.818Z,98471.42
2017-11-03T06:53:17.089Z,98471.55
2017-11-03T06:55:45.454Z,98472.66
2017-11-03T06:58:13.725Z,98475.09
2017-11-03T07:00:41.994Z,98479.30
2017-11-03T07:03:10.276Z,98476.06
2017-11-03T07:05:38.541Z,98477.30
2017-11-03T07:08:06.820Z,98481.47
2017-11-03T07:10:35.108Z,98479.55
2017-11-03T07:13:03.372Z,98485.23
2017-11-03T07:15:31.636Z,98481.06
2017-11-03T07:17:59.937Z,98484.37
2017-11-03T07:20:28.214Z,98483.66
2017-11-03T07:22:56.486Z,98491.17
2017-11-03T07:25:24.759Z,98489.09
2017-11-03T07:27:53.029Z,98483.97
2017-11-03T07:30:22.084Z,98480.72
2017-11-03T07:32:50.352Z,98477.84
2017-11-03T07:35:18.603Z,98474.31
2017-11-03T07:37:46.882Z,98471.78
2017-11-03T07:40:15.151Z,98473.18
2017-11-03T07:42:43.426Z,98476.19
2017-11-03T07:45:11.696Z,98474.72
2017-11-03T07:47:39.962Z,98479.38
2017-11-03T07:50:08.246Z,98467.78
2017-11-03T07:52:36.507Z,98475.73
2017-11-03T07:55:05.550Z,98475.01
2017-11-03T07:57:33.830Z,98482.13
2017-11-03T08:00:02.569Z,98477.77
2017-11-03T08:02:31.602Z,98478.61
2017-11-03T08:05:00.329Z,98476.55
2017-11-03T08:07:28.594Z,98471.35
2017-11-03T08:09:56.873Z,98471.83
2017-11-03T08:12:25.153Z,98472.72
2017-11-03T08:14:53.415Z,98474.89
2017-11-03T08:17:21.680Z,98470.53
2017-11-03T08:19:49.965Z,98469.95
2017-11-03T08:22:18.226Z,98466.89
2017-11-03T08:24:46.504Z,98466.11
2017-11-03T08:27:14.777Z,98478.25
2017-11-03T08:29:43.127Z,98470.55
2017-11-03T08:32:12.178Z,98465.69
2017-11-03T08:34:40.439Z,98467.53
2017-11-03T08:37:09.246Z,98463.14
2017-11-03T08:39:37.506Z,98458.27
2017-11-03T08:42:05.768Z,98459.61
2017-11-03T08:44:34.043Z,98455.83
2017-11-03T08:47:02.336Z,98454.88
2017-11-03T08:49:30.617Z,98457.55
2017-11-03T08:51:58.869Z,98460.89
2017-11-03T08:54:27.906Z,98458.38
2017-11-03T08:56:56.190Z,98461.91
2017-11-03T08:59:24.458Z,98458.54
2017-11-03T09:01:52.716Z,98454.22
2017-11-03T09:04:21.003Z,98456.55
2017-11-03T09:06:49.256Z,98457.52
2017-11-03T09:09:17.521Z,98453.55
2017-11-03T09:11:46.574Z,98450.66
2017-11-03T09:14:14.838Z,98450.80
2017-11-03T09:16:43.116Z,98450.66
2017-11-03T09:19:11.403Z,98455.14
2017-11-03T09:21:39.668Z,98453.30
2017-11-03T09:24:07.955Z,98451.38
2017-11-03T09:26:36.241Z,98451.14
2017-11-03T09:29:04.500Z,98453.33
2017-11-03T09:31:32.757Z,98451.64
2017-11-03T09:34:01.054Z,98448.80
2017-11-03T09:36:30.403Z,98452.10
2017-11-03T09:38:58.698Z,98451.00
2017-11-03T09:41:27.742Z,98449.50
2017-11-03T09:43:56.023Z,98449.36
2017-11-03T09:46:24.309Z,98449.38
2017-11-03T09:48:52.579Z,98448.28
2017-11-03T09:51:20.854Z,98445.80
2017-11-03T09:53:49.145Z,98438.27
2017-11-03T09:56:17.407Z,98436.53
2017-11-03T09:58:45.675Z,98433.73
2017-11-03T10:01:14.784Z,98438.73
2017-11-03T10:03:43.050Z,98430.05
2017-11-03T10:06:11.322Z,98433.78
2017-11-03T10:08:39.640Z,98430.30
2017-11-03T10:11:07.879Z,98431.07
2017-11-03T10:13:36.146Z,98426.73
2017-11-03T10:16:04.432Z,98420.40
2017-11-03T10:18:32.813Z,98423.17
2017-11-03T10:21:01.104Z,98424.78
2017-11-03T10:23:29.368Z,98426.06
2017-11-03T10:25:57.627Z,98417.50
2017-11-03T10:28:25.915Z,98420.11
2017-11-03T10:30:54.183Z,98415.53
2017-11-03T10:33:22.797Z,98414.05
2017-11-03T10:35:51.065Z,98415.01
2017-11-03T10:38:19.335Z,98414.45
2017-11-03T10:40:47.874Z,98409.45
2017-11-03T10:43:16.161Z,98399.00
2017-11-03T10:45:44.889Z,98402.88
2017-11-03T10:48:13.172Z,98403.52
2017-11-03T10:50:41.430Z,98399.00
2017-11-03T10:53:09.704Z,98390.00
2017-11-03T10:55:38.015Z,98392.09
2017-11-03T10:58:06.304Z,98388.77
2017-11-03T11:00:34.569Z,98385.53
2017-11-03T11:03:02.842Z,98386.61
2017-11-03T11:05:31.090Z,98376.64
2017-11-03T11:07:59.356Z,98370.44
2017-11-03T11:10:27.631Z,98367.07
2017-11-03T11:12:55.893Z,98362.02
2017-11-03T11:15:24.143Z,98367.27
2017-11-03T11:17:52.433Z,98366.73
2017-11-03T11:20:20.683Z,98366.48
2017-11-03T11:22:48.959Z,98359.79
2017-11-03T11:25:17.240Z,98358.09
2017-11-03T11:27:45.531Z,98358.44
2017-11-03T11:30:14.221Z,98346.69
2017-11-03T11:32:42.893Z,98347.77
2017-11-03T11:35:11.163Z,98341.41
2017-11-03T11:37:39.443Z,98344.72
2017-11-03T11:40:07.712Z,98344.73
2017-11-03T11:42:35.976Z,98331.66
2017-11-03T11:45:04.271Z,98329.53
2017-11-03T11:47:32.546Z,98331.87
2017-11-03T11:50:00.821Z,98328.76
2017-11-03T11:52:29.150Z,98331.95
2017-11-03T11:54:57.436Z,98328.05
2017-11-03T11:57:26.476Z,98324.77
2017-11-03T11:59:54.765Z,98324.19
2017-11-03T12:02:23.043Z,98318.03
2017-11-03T12:04:51.633Z,98314.46
2017-11-03T12:07:19.906Z,98315.22
2017-11-03T12:09:48.188Z,98306.73
2017-11-03T12:12:16.516Z,98304.58
2017-11-03T12:14:44.795Z,98303.05
2017-11-03T12:17:13.856Z,98294.86
2017-11-03T12:19:42.134Z,98291.72
2017-11-03T12:22:10.410Z,98287.02
2017-11-03T12:24:38.697Z,98285.48
2017-11-03T12:27:06.981Z,98278.97
2017-11-03T12:29:35.261Z,98281.32
2017-11-03T12:32:03.994Z,98281.94
2017-11-03T12:34:32.291Z,98281.28
2017-11-03T12:37:00.545Z,98278.82
2017-11-03T12:39:28.823Z,98279.42
2017-11-03T12:41:57.097Z,98285.69
2017-11-03T12:44:25.373Z,98287.73
2017-11-03T12:46:53.656Z,98287.58
2017-11-03T12:49:21.916Z,98281.70
2017-11-03T12:51:50.220Z,98278.28
2017-11-03T12:54:18.494Z,98280.16
2017-11-03T12:56:46.753Z,98281.28
2017-11-03T12:59:15.061Z,98272.12
2017-11-03T13:01:43.335Z,98263.19
2017-11-03T13:04:11.620Z,98265.31
2017-11-03T13:06:39.892Z,98257.73
2017-11-03T13:09:08.158Z,98253.23
2017-11-03T13:11:36.448Z,98250.34
2017-11-03T13:14:04.728Z,98249.04
2017-11-03T13:16:33.301Z,98246.42
2017-11-03T13:19:01.567Z,98240.95
2017-11-03T13:21:29.837Z,98241.97
2017-11-03T13:23:58.892Z,98235.72
2017-11-03T13:26:27.176Z,98227.67
2017-11-03T13:28:55.482Z,98230.41
2017-11-03T13:31:23.761Z,98229.08
2017-11-03T13:33:52.787Z,98227.27
2017-11-03T13:36:21.066Z,98221.23
2017-11-03T13:38:49.327Z,98220.24
2017-11-03T13:41:17.629Z,98216.91
2017-11-03T13:43:45.902Z,98210.34
2017-11-03T13:46:14.161Z,98209.66
2017-11-03T13:48:42.449Z,98204.92
2017-11-03T13:51:10.766Z,98205.32
2017-11-03T13:53:39.339Z,98200.48
2017-11-03T13:56:08.428Z,98203.80
2017-11-03T13:58:36.704Z,98203.70
2017-11-03T14:01:04.986Z,98205.93
2017-11-03T14:03:33.266Z,98203.42
2017-11-03T14:06:01.548Z,98203.70
2017-11-03T14:08:29.810Z,98203.21
2017-11-03T14:10:58.095Z,98195.74
2017-11-03T14:13:26.381Z,98201.08
2017-11-03T14:15:54.655Z,98196.33
2017-11-03T14:18:22.919Z,98198.95
2017-11-03T14:20:51.198Z,98201.99
2017-11-03T14:23:19.485Z,98198.05
2017-11-03T14:25:47.749Z,98202.47
2017-11-03T14:28:16.427Z,98198.34
2017-11-03T14:30:44.738Z,98203.18
2017-11-03T14:33:13.015Z,98199.44
2017-11-03T14:35:41.306Z,98200.45
2017-11-03T14:38:09.614Z,98200.73
2017-11-03T14:40:38.668Z,98195.38
2017-11-03T14:43:06.961Z,98196.17
2017-11-03T14:45:35.223Z,98193.73
2017-11-03T14:48:03.500Z,98194.55
2017-11-03T14:50:32.169Z,98204.33
2017-11-03T14:53:00.441Z,98199.98
2017-11-03T14:55:28.711Z,98194.63
2017-11-03T14:57:57.000Z,98184.75
2017-11-03T15:00:25.273Z,98180.81
2017-11-03T15:02:53.538Z,98183.81
2017-11-03T15:05:21.842Z,98183.11
2017-11-03T15:07:50.123Z,98182.61
2017-11-03T15:10:18.407Z,98183.30
2017-11-03T15:12:46.702Z,98184.11
2017-11-03T15:15:14.983Z,98180.58
2017-11-03T15:17:43.268Z,98181.29
2017-11-03T15:20:11.538Z,98178.03
2017-11-03T15:22:40.689Z,98179.01
2017-11-03T15:25:08.972Z,98173.15
2017-11-03T15:27:37.242Z,98169.09
2017-11-03T15:30:05.518Z,98167.66
2017-11-03T15:32:33.805Z,98166.60
2017-11-03T15:35:02.086Z,98162.66
2017-11-03T15:37:30.380Z,98168.05
2017-11-03T15:39:58.668Z,98165.11
2017-11-03T15:42:26.928Z,98159.35
2017-11-03T15:44:55.182Z,98166.06
2017-11-03T15:47:23.470Z,98165.01
2017-11-03T15:49:51.749Z,98165.66
2017-11-03T15:52:20.022Z,98160.44
2017-11-03T15:54:48.326Z,98164.35
2017-11-03T15:57:16.634Z,98161.51
2017-11-03T15:59:44.920Z,98161.19
2017-11-03T16:02:13.958Z,98165.41
2017-11-03T16:04:42.226Z,98162.81
2017-11-03T16:07:10.514Z,98165.40
2017-11-03T16:09:38.764Z,98160.11
2017-11-03T16:12:07.032Z,98163.06
2017-11-03T16:14:35.304Z,98161.14
2017-11-03T16:17:03.572Z,98159.42
2017-11-03T16:19:32.121Z,98161.47
2017-11-03T16:22:00.387Z,98159.75
2017-11-03T16:24:28.659Z,98157.48
2017-11-03T16:26:57.194Z,98147.93
2017-11-03T16:29:25.465Z,98150.83
2017-11-03T16:31:53.727Z,98147.56
2017-11-03T16:34:22.011Z,98141.59
2017-11-03T16:36:50.271Z,98139.52
2017-11-03T16:39:18.559Z,98143.27
2017-11-03T16:41:46.830Z,98140.97
2017-11-03T16:44:15.087Z,98138.70
2017-11-03T16:46:43.353Z,98151.02
2017-11-03T16:49:11.682Z,98157.92
2017-11-03T16:51:39.995Z,98155.44
2017-11-03T16:54:09.121Z,98163.37
2017-11-03T16:56:37.469Z,98166.55
2017-11-03T16:59:05.853Z,98167.32
2017-11-03T17:01:34.147Z,98164.98
2017-11-03T17:04:03.484Z,98158.08
2017-11-03T17:06:31.800Z,98164.22
2017-11-03T17:09:00.276Z,98170.91
2017-11-03T17:11:29.030Z,98164.53
2017-11-03T17:13:58.268Z,98171.82
2017-11-03T17:16:26.645Z,98167.16
2017-11-03T17:18:55.161Z,98168.91
2017-11-03T17:21:23.438Z,98169.92
2017-11-03T17:23:51.745Z,98176.61
2017-11-03T17:26:20.019Z,98166.95
2017-11-03T17:28:48.282Z,98166.18
2017-11-03T17:31:16.661Z,98173.58
2017-11-03T17:33:44.924Z,98178.86
2017-11-03T17:36:13.216Z,98175.30
2017-11-03T17:38:41.485Z,98173.04
2017-11-03T17:41:09.746Z,98177.83
2017-11-03T17:43:38.029Z,98174.20
2017-11-03T17:46:06.739Z,98166.66
2017-11-03T17:48:35.000Z,98173.41
2017-11-03T17:51:03.606Z,98173.92
2017-11-03T17:53:31.872Z,98175.48
2017-11-03T17:56:00.145Z,98166.03
2017-11-03T17:58:28.426Z,98165.09
2017-11-03T18:00:56.699Z,98163.98
2017-11-03T18:03:24.972Z,98161.53
2017-11-03T18:05:53.267Z,98154.80
2017-11-03T18:08:21.532Z,98151.39
2017-11-03T18:10:49.783Z,98153.02
2017-11-03T18:13:18.084Z,98154.32
2017-11-03T18:15:46.485Z,98153.56
2017-11-03T18:18:14.754Z,98150.38
2017-11-03T18:20:43.037Z,98157.48
2017-11-03T18:23:11.296Z,98152.41
2017-11-03T18:25:39.618Z,98162.43
2017-11-03T18:28:08.376Z,98154.53
2017-11-03T18:30:36.639Z,98150.94
2017-11-03T18:33:04.911Z,98149.72
2017-11-03T18:35:33.215Z,98152.73
2017-11-03T18:38:01.473Z,98150.41
2017-11-03T18:40:29.747Z,98151.05
2017-11-03T18:42:58.063Z,98160.63
2017-11-03T18:45:26.320Z,98148.75
2017-11-03T18:47:54.625Z,98156.13
2017-11-03T18:50:22.893Z,98146.23
2017-11-03T18:52:51.152Z,98147.53
2017-11-03T18:55:19.693Z,98146.17
2017-11-03T18:57:47.974Z,98144.68
2017-11-03T19:00:17.001Z,98144.68
2017-11-03T19:02:45.304Z,98151.05
2017-11-03T19:05:13.556Z,98146.73
2017-11-03T19:07:41.826Z,98147.50
2017-11-03T19:10:10.116Z,98143.99
2017-11-03T19:12:38.387Z,98148.16
2017-11-03T19:15:06.655Z,98148.58
2017-11-03T19:17:34.933Z,98148.91
2017-11-03T19:20:03.220Z,98136.64
2017-11-03T19:22:31.504Z,98139.50
2017-11-03T19:24:59.806Z,98140.32
2017-11-03T19:27:28.092Z,98134.60
2017-11-03T19:29:56.369Z,98135.83
2017-11-03T19:32:24.668Z,98138.98
2017-11-03T19:34:53.839Z,98138.17
2017-11-03T19:37:22.134Z,98137.23
2017-11-03T19:39:51.963Z,98139.02
2017-11-03T19:42:20.260Z,98143.06
2017-11-03T19:44:48.547Z,98139.32
2017-11-03T19:47:16.835Z,98129.66
2017-11-03T19:49:45.135Z,98131.30
2017-11-03T19:52:13.391Z,98132.19
2017-11-03T19:54:41.695Z,98128.66
2017-11-03T19:57:09.990Z,98124.34
2017-11-03T19:59:38.296Z,98131.25
2017-11-03T20:02:06.578Z,98124.33
2017-11-03T20:04:34.864Z,98125.92
2017-11-03T20:07:03.185Z,98122.64
2017-11-03T20:09:31.475Z,98122.84
2017-11-03T20:11:59.834Z,98122.33
2017-11-03T20:14:28.648Z,98120.02
2017-11-03T20:16:56.952Z,98116.84
2017-11-03T20:19:25.226Z,98114.25
2017-11-03T20:21:54.699Z,98107.59
2017-11-03T20:24:22.956Z,98107.66
2017-11-03T20:26:51.241Z,98105.47
2017-11-03T20:29:19.541Z,98107.38
2017-11-03T20:31:47.820Z,98111.28
2017-11-03T20:34:16.668Z,98106.48
2017-11-03T20:36:44.948Z,98107.45
2017-11-03T20:39:13.957Z,98110.05
2017-11-03T20:41:42.342Z,98103.17
2017-11-03T20:44:11.007Z,98105.38
2017-11-03T20:46:41.565Z,98105.44
2017-11-03T20:49:09.834Z,98098.17
2017-11-03T20:51:38.103Z,98098.36
2017-11-03T20:54:06.402Z,98100.67
2017-11-03T20:56:34.682Z,98095.44
2017-11-03T20:59:03.463Z,98097.42
2017-11-03T21:01:31.737Z,98096.93
2017-11-03T21:04:00.002Z,98095.27
2017-11-03T21:06:28.273Z,98093.73
2017-11-03T21:08:57.006Z,98095.16
2017-11-03T21:11:25.301Z,98096.03
2017-11-03T21:13:53.583Z,98094.30
2017-11-03T21:16:23.876Z,98095.92
2017-11-03T21:18:52.136Z,98097.75
2017-11-03T21:21:20.686Z,98097.20
2017-11-03T21:23:49.581Z,98093.60
2017-11-03T21:26:17.842Z,98094.14
2017-11-03T21:28:46.876Z,98092.81
2017-11-03T21:31:15.169Z,98091.92
2017-11-03T21:33:44.354Z,98080.81
2017-11-03T21:36:12.636Z,98081.03
2017-11-03T21:38:42.623Z,98078.19
2017-11-03T21:41:10.894Z,98079.27
2017-11-03T21:43:40.017Z,98073.92
2017-11-03T21:46:08.291Z,98072.91
2017-11-03T21:48:36.669Z,98066.04
2017-11-03T21:51:05.308Z,98072.26
2017-11-03T21:53:34.552Z,98075.03
2017-11-03T21:56:03.979Z,98067.91
2017-11-03T21:58:32.287Z,98068.67
2017-11-03T22:01:00.699Z,98065.58
2017-11-03T22:03:30.365Z,98068.80
2017-11-03T22:05:58.678Z,98064.32
2017-11-03T22:08:28.239Z,98063.15
2017-11-03T22:10:56.518Z,98056.81
2017-11-03T22:13:24.832Z,98052.33
2017-11-03T22:15:53.125Z,98055.50
2017-11-03T22:18:22.170Z,98057.34
2017-11-03T22:20:50.447Z,98063.36
2017-11-03T22:23:19.138Z,98055.99
2017-11-03T22:25:47.413Z,98052.06
2017-11-03T22:28:16.491Z,98062.01
2017-11-03T22:30:45.188Z,98053.17
2017-11-03T22:33:13.992Z,98049.91
2017-11-03T22:35:42.268Z,98048.04
2017-11-03T22:38:10.523Z,98050.65
2017-11-03T22:40:38.817Z,98044.94
2017-11-03T22:43:07.098Z,98042.01
2017-11-03T22:45:35.366Z,98040.05
2017-11-03T22:48:03.944Z,98041.61
2017-11-03T22:50:32.224Z,98038.89
2017-11-03T22:53:00.517Z,98037.68
2017-11-03T22:55:29.048Z,98032.63
2017-11-03T22:57:58.072Z,98022.49
2017-11-03T23:00:26.331Z,98021.80
2017-11-03T23:02:54.622Z,98013.52
2017-11-03T23:05:22.934Z,98015.61
2017-11-03T23:07:51.487Z,98013.81
2017-11-03T23:10:19.745Z,98009.69
2017-11-03T23:12:48.777Z,98011.39
2017-11-03T23:15:17.074Z,98016.66
2017-11-03T23:17:46.136Z,98012.75
2017-11-03T23:20:14.402Z,98011.50
2017-11-03T23:22:43.958Z,98014.19
2017-11-03T23:25:12.624Z,98016.27
2017-11-03T23:27:40.918Z,98011.37
2017-11-03T23:30:09.176Z,98013.97
2017-11-03T23:32:37.435Z,98017.05
2017-11-03T23:35:05.722Z,98015.47
2017-11-03T23:37:33.995Z,98015.06
2017-11-03T23:40:02.291Z,98013.76
2017-11-03T23:42:30.560Z,98020.33
2017-11-03T23:44:58.835Z,98009.23
2017-11-03T23:47:27.160Z,97997.25
2017-11-03T23:49:55.422Z,98000.14
2017-11-03T23:52:24.026Z,98004.02
2017-11-03T23:54:52.319Z,98003.28
2017-11-03T23:57:21.352Z,98004.55
2017-11-03T23:59:49.630Z,98000.31
